Language: 


Des rapports , des résumés tant et plus, au choix de chacun....


Données statistiques de la station
Quotidien Rapport Décembre 27, 2017 Unités:  Anglais    Métrique   les deux
« Précédent Jour
Suivant Jour »
Quotidien Hebdomadaire Mensuel Annuel Actuel
  Haut: Bas: Moyen:
Température: TemperatureC °F 0.0 °F 5.8 °F
Pt de rosée: DewpointC °F 2.0 °F 4.8 °F
Humidité: Humidity % 0 % 91 %
Vitesse du vent: WindSpeedKMH mph 0.0 mph 13.1 mph
Rafales: WindSpeedGustKMH mph - -
Vent:- - WSW
Pression: PressurehPa in 0.0 in -
Précipitation: 8.6 in    
Historical Graphs
 
 
Données statistiques pour Décembre 27, 2017
Heure Température Point de rosée Pression Vent Vitesse du vent Refales Humidité Pluie (taux horaire)
TemperatureC °F DewpointC °F PressurehPa in Calm     Humidity % HourlyPrecipMM in
00:04 7.2 °F 6.0 °F 999.9 in WSW 19.5 mph 27.0 mph 91 % 0.0 in
00:05 7.2 °F 6.0 °F 999.9 in WSW 19.5 mph 27.0 mph 91 % 0.0 in
00:10 7.8 °F 5.0 °F 998.9 in SW 20.9 mph 24.8 mph 81 % 0.0 in
00:15 7.8 °F 5.0 °F 998.9 in SW 20.9 mph 24.8 mph 81 % 0.0 in
00:16 7.2 °F 6.0 °F 999.9 in WSW 19.5 mph 27.0 mph 91 % 0.0 in
00:17 7.8 °F 5.0 °F 998.9 in SW 20.9 mph 24.8 mph 81 % 0.0 in
00:21 7.8 °F 5.0 °F 998.9 in SW 20.9 mph 24.8 mph 81 % 0.0 in
00:22 7.8 °F 5.0 °F 998.9 in SW 20.9 mph 24.8 mph 81 % 0.0 in
00:27 7.8 °F 5.0 °F 998.9 in SW 20.9 mph 24.8 mph 81 % 0.0 in
00:30 7.2 °F 6.0 °F 999.9 in WSW 19.5 mph 27.0 mph 91 % 0.0 in
00:34 7.8 °F 5.0 °F 998.9 in SW 20.9 mph 24.8 mph 81 % 0.0 in
00:39 7.2 °F 6.0 °F 999.9 in WSW 19.5 mph 27.0 mph 91 % 0.0 in
00:40 7.8 °F 5.0 °F 998.9 in SW 20.9 mph 24.8 mph 81 % 0.0 in
00:45 7.8 °F 5.0 °F 998.9 in SW 20.9 mph 24.8 mph 81 % 0.0 in
00:46 7.8 °F 5.0 °F 998.9 in SW 20.9 mph 24.8 mph 81 % 0.0 in
00:48 7.8 °F 5.0 °F 998.9 in SW 20.9 mph 24.8 mph 81 % 0.0 in
00:53 7.2 °F 6.0 °F 999.9 in WSW 19.5 mph 27.0 mph 91 % 0.0 in
00:58 7.8 °F 5.0 °F 998.9 in SW 20.9 mph 24.8 mph 81 % 0.0 in
01:03 7.8 °F 5.0 °F 998.9 in SW 20.9 mph 24.8 mph 81 % 0.0 in
01:04 7.2 °F 6.0 °F 999.9 in WSW 19.5 mph 27.0 mph 91 % 0.0 in
01:05 7.2 °F 6.0 °F 999.9 in WSW 19.5 mph 27.0 mph 91 % 0.0 in
01:10 7.8 °F 5.0 °F 998.9 in SW 20.9 mph 24.8 mph 81 % 0.0 in
01:15 7.2 °F 6.0 °F 999.9 in WSW 19.5 mph 27.0 mph 91 % 0.0 in
01:16 7.8 °F 5.0 °F 998.9 in SW 20.9 mph 24.8 mph 81 % 0.0 in
01:21 7.2 °F 6.0 °F 999.9 in WSW 19.5 mph 27.0 mph 91 % 0.0 in
01:26 7.8 °F 5.0 °F 998.9 in SW 20.9 mph 24.8 mph 81 % 0.0 in
01:28 7.8 °F 5.0 °F 998.9 in SW 20.9 mph 24.8 mph 81 % 0.0 in
01:31 7.2 °F 6.0 °F 999.9 in WSW 19.5 mph 27.0 mph 91 % 0.0 in
01:33 7.2 °F 6.0 °F 999.9 in WSW 19.5 mph 27.0 mph 91 % 0.0 in
01:34 7.8 °F 5.0 °F 998.9 in SW 20.9 mph 24.8 mph 81 % 0.0 in
01:38 7.8 °F 5.0 °F 998.9 in SW 20.9 mph 24.8 mph 81 % 0.0 in
01:40 7.8 °F 5.0 °F 998.9 in SW 20.9 mph 24.8 mph 81 % 0.0 in
01:43 7.8 °F 5.0 °F 998.9 in SW 20.9 mph 24.8 mph 81 % 0.0 in
01:47 7.8 °F 5.0 °F 998.9 in SW 20.9 mph 24.8 mph 81 % 0.0 in
01:49 7.8 °F 5.0 °F 998.9 in SW 20.9 mph 24.8 mph 81 % 0.0 in
01:54 7.2 °F 6.0 °F 999.9 in WSW 19.5 mph 27.0 mph 91 % 0.0 in
01:55 7.8 °F 5.0 °F 998.9 in SW 20.9 mph 24.8 mph 81 % 0.0 in
02:00 7.8 °F 5.0 °F 998.9 in SW 20.9 mph 24.8 mph 81 % 0.0 in
02:05 7.8 °F 5.0 °F 998.9 in SW 20.9 mph 24.8 mph 81 % 0.0 in
02:07 7.8 °F 5.0 °F 998.9 in SW 20.9 mph 24.8 mph 81 % 0.0 in
02:11 7.8 °F 5.0 °F 998.9 in SW 20.9 mph 24.8 mph 81 % 0.0 in
02:16 7.8 °F 5.0 °F 998.9 in SW 20.9 mph 24.8 mph 81 % 0.0 in
02:21 7.8 °F 5.0 °F 998.9 in SW 20.9 mph 24.8 mph 81 % 0.0 in
02:24 7.2 °F 6.0 °F 999.9 in WSW 19.5 mph 27.0 mph 91 % 0.0 in
02:26 7.8 °F 5.0 °F 998.9 in SW 20.9 mph 24.8 mph 81 % 0.0 in
02:31 7.2 °F 6.0 °F 999.9 in WSW 19.5 mph 27.0 mph 91 % 0.0 in
02:34 7.8 °F 5.0 °F 998.9 in SW 20.9 mph 24.8 mph 81 % 0.0 in
02:37 7.8 °F 5.0 °F 998.9 in SW 20.9 mph 24.8 mph 81 % 0.0 in
02:39 7.2 °F 6.0 °F 999.9 in WSW 19.5 mph 27.0 mph 91 % 0.0 in
02:42 7.2 °F 6.0 °F 999.9 in WSW 19.5 mph 27.0 mph 91 % 0.0 in
02:47 7.2 °F 6.0 °F 999.9 in WSW 19.5 mph 27.0 mph 91 % 0.0 in
02:49 7.2 °F 6.0 °F 999.9 in WSW 19.5 mph 27.0 mph 91 % 0.0 in
02:50 7.8 °F 5.0 °F 998.9 in SW 20.9 mph 24.8 mph 81 % 0.0 in
02:54 7.2 °F 6.0 °F 999.9 in WSW 19.5 mph 27.0 mph 91 % 0.0 in
02:55 7.2 °F 6.0 °F 999.9 in WSW 19.5 mph 27.0 mph 91 % 0.0 in
08:37 6.5 °F 7.0 °F 0.0 in WSW 9.3 mph 9.3 mph 98 % 0.0 in
08:39 6.5 °F 7.0 °F 978.9 in SSW 7.9 mph 9.3 mph 98 % 0.0 in
08:42 6.5 °F 7.0 °F 978.9 in SSW 7.9 mph 9.3 mph 98 % 0.0 in
08:44 6.3 °F 6.0 °F 978.9 in Calm   9.3 mph 98 % 0.0 in
08:49 6.5 °F 7.0 °F 978.9 in SSW 7.9 mph 9.3 mph 98 % 0.0 in
08:54 6.1 °F 6.0 °F 978.9 in SSW 12.2 mph 12.2 mph 98 % 0.0 in
08:59 6.1 °F 6.0 °F 978.9 in SSW 9.0 mph 12.2 mph 98 % 0.0 in
09:02 6.1 °F 6.0 °F 978.9 in SSW 7.6 mph 12.2 mph 98 % 0.0 in
09:08 0.0 °F 6.0 °F 978.9 in SSW 5.5 mph 9.0 mph 0 % 0.0 in
09:12 6.0 °F 6.0 °F 979.9 in SSW 4.3 mph 7.9 mph 98 % 0.0 in
09:17 6.0 °F 6.0 °F 979.9 in SW 6.1 mph 7.9 mph 98 % 0.0 in
09:18 6.0 °F 6.0 °F 979.9 in SSW 5.8 mph 7.9 mph 98 % 0.0 in
09:23 6.0 °F 6.0 °F 979.9 in SSW 6.1 mph 9.7 mph 98 % 0.0 in
09:26 6.0 °F 6.0 °F 979.9 in Calm   9.7 mph 98 % 0.0 in
09:31 6.0 °F 6.0 °F 979.9 in Calm   9.7 mph 98 % 0.0 in
09:33 6.0 °F 6.0 °F 979.9 in Calm   9.7 mph 98 % 0.0 in
09:38 6.0 °F 6.0 °F 979.9 in SSW 4.7 mph 9.0 mph 98 % 0.0 in
09:39 6.0 °F 6.0 °F 979.9 in Calm   9.0 mph 98 % 0.0 in
09:44 6.0 °F 6.0 °F 979.9 in South 7.9 mph 9.0 mph 98 % 0.0 in
09:45 6.0 °F 6.0 °F 979.9 in Calm   9.0 mph 98 % 0.0 in
09:50 6.1 °F 6.0 °F 979.9 in SSW 5.5 mph 7.9 mph 98 % 0.0 in
09:52 6.1 °F 6.0 °F 979.9 in South 9.0 mph 9.0 mph 98 % 0.0 in
09:57 6.3 °F 6.0 °F 980.9 in SSW 5.5 mph 11.6 mph 98 % 0.0 in
10:01 6.5 °F 7.0 °F 980.9 in South 5.8 mph 11.6 mph 98 % 0.0 in
10:03 6.6 °F 7.0 °F 980.9 in SSW 6.9 mph 11.6 mph 98 % 0.0 in
10:06 6.7 °F 7.0 °F 980.9 in SSW 7.9 mph 13.0 mph 98 % 0.0 in
10:08 6.7 °F 7.0 °F 980.9 in SSW 6.1 mph 13.0 mph 98 % 0.0 in
10:13 6.7 °F 7.0 °F 980.9 in South 8.7 mph 13.0 mph 98 % 0.0 in
10:18 6.7 °F 7.0 °F 980.9 in SSW 6.4 mph 13.0 mph 98 % 0.0 in
10:23 6.7 °F 6.0 °F 980.9 in SSW 6.1 mph 13.0 mph 97 % 0.0 in
10:25 6.7 °F 6.0 °F 980.9 in Calm   10.1 mph 97 % 0.0 in
10:30 6.7 °F 6.0 °F 980.9 in SW 11.6 mph 11.6 mph 97 % 0.0 in
10:35 6.7 °F 6.0 °F 980.9 in South 5.5 mph 13.0 mph 97 % 0.0 in
10:36 6.8 °F 6.0 °F 980.9 in SSW 6.4 mph 13.0 mph 96 % 0.0 in
10:41 6.9 °F 7.0 °F 980.9 in SW 8.7 mph 16.3 mph 96 % 0.0 in
10:46 7.3 °F 7.0 °F 980.9 in SSW 10.1 mph 16.3 mph 96 % 0.0 in
10:49 7.5 °F 7.0 °F 980.9 in SW 12.2 mph 15.4 mph 95 % 0.0 in
10:52 7.5 °F 7.0 °F 980.9 in WSW 13.0 mph 15.4 mph 95 % 0.0 in
10:55 7.5 °F 7.0 °F 980.9 in SSW 13.0 mph 15.8 mph 95 % 0.0 in
11:00 7.4 °F 6.0 °F 980.9 in SW 13.0 mph 21.2 mph 93 % 0.0 in
11:05 7.3 °F 6.0 °F 980.9 in South 9.0 mph 21.2 mph 91 % 0.0 in
11:08 7.3 °F 6.0 °F 980.9 in WSW 9.3 mph 16.3 mph 91 % 0.0 in
11:13 7.3 °F 6.0 °F 980.9 in SSW 10.5 mph 15.1 mph 91 % 0.0 in
11:16 7.5 °F 6.0 °F 980.9 in SSW 10.5 mph 14.0 mph 91 % 0.0 in
11:19 7.7 °F 6.0 °F 980.9 in SSW 11.9 mph 19.8 mph 90 % 0.0 in
11:23 7.8 °F 6.0 °F 980.9 in SSW 10.1 mph 19.8 mph 90 % 0.0 in
11:24 7.8 °F 6.0 °F 980.9 in SSW 10.1 mph 19.8 mph 90 % 0.0 in
11:29 7.8 °F 6.0 °F 980.9 in SW 16.3 mph 19.5 mph 88 % 0.0 in
11:31 7.7 °F 6.0 °F 980.9 in SSW 16.3 mph 19.5 mph 88 % 0.0 in
11:32 7.7 °F 6.0 °F 980.9 in SW 17.2 mph 19.5 mph 87 % 0.0 in
11:37 7.4 °F 5.0 °F 980.9 in SSW 14.0 mph 17.2 mph 86 % 0.0 in
11:38 7.4 °F 5.0 °F 980.9 in WSW 11.9 mph 17.2 mph 86 % 0.0 in
11:43 7.3 °F 5.0 °F 980.9 in SW 7.9 mph 19.5 mph 86 % 0.0 in
11:48 7.5 °F 6.0 °F 980.9 in SSW 6.1 mph 19.5 mph 87 % 0.0 in
11:49 7.5 °F 6.0 °F 980.9 in SSW 6.4 mph 19.5 mph 87 % 0.0 in
11:54 7.6 °F 6.0 °F 980.9 in Calm   13.0 mph 87 % 0.0 in
11:59 7.6 °F 6.0 °F 980.9 in SSW 4.7 mph 12.2 mph 87 % 0.0 in
12:00 7.6 °F 6.0 °F 980.9 in SSW 6.9 mph 12.2 mph 87 % 0.0 in
12:05 7.5 °F 6.0 °F 980.9 in SW 12.6 mph 13.0 mph 87 % 0.0 in
12:07 7.5 °F 6.0 °F 980.9 in SSW 9.3 mph 13.7 mph 87 % 0.0 in
12:08 7.4 °F 6.0 °F 980.9 in SSW 7.6 mph 13.7 mph 87 % 0.0 in
12:13 7.4 °F 6.0 °F 980.9 in SSW 9.3 mph 13.7 mph 87 % 0.0 in
12:14 7.3 °F 6.0 °F 980.9 in SSW 9.0 mph 13.7 mph 87 % 0.0 in
12:19 7.3 °F 5.0 °F 980.9 in SW 12.2 mph 16.3 mph 86 % 0.0 in
12:20 7.3 °F 5.0 °F 980.9 in South 8.7 mph 16.3 mph 86 % 0.0 in
12:25 7.2 °F 5.0 °F 980.9 in SSW 9.7 mph 16.3 mph 86 % 0.0 in
12:26 7.2 °F 5.0 °F 980.9 in SSW 10.5 mph 16.3 mph 86 % 0.0 in
12:31 7.2 °F 6.0 °F 980.9 in South 8.7 mph 15.8 mph 87 % 0.0 in
12:32 7.2 °F 6.0 °F 980.9 in SSW 9.0 mph 15.8 mph 87 % 0.0 in
12:37 7.4 °F 6.0 °F 980.9 in South 1.8 mph 14.0 mph 87 % 0.0 in
12:38 7.4 °F 6.0 °F 980.9 in South 10.5 mph 16.3 mph 88 % 0.0 in
12:44 7.5 °F 6.0 °F 980.9 in South 12.2 mph 16.3 mph 88 % 0.0 in
12:45 7.5 °F 6.0 °F 980.9 in SSW 7.9 mph 16.3 mph 88 % 0.0 in
12:50 7.6 °F 6.0 °F 980.9 in South 9.3 mph 13.7 mph 88 % 0.0 in
12:55 7.6 °F 6.0 °F 980.9 in SW 10.5 mph 15.8 mph 87 % 0.0 in
12:56 7.6 °F 6.0 °F 980.9 in South 11.9 mph 15.8 mph 87 % 0.0 in
12:57 7.7 °F 6.0 °F 980.9 in SSW 9.0 mph 15.8 mph 87 % 0.0 in
13:02 7.7 °F 6.0 °F 980.9 in WSW 12.6 mph 15.8 mph 87 % 0.0 in
13:05 7.7 °F 6.0 °F 980.9 in SW 11.9 mph 16.3 mph 87 % 0.0 in
13:06 7.7 °F 6.0 °F 980.9 in SW 9.0 mph 16.3 mph 87 % 0.0 in
13:11 7.7 °F 6.0 °F 979.9 in SSW 11.9 mph 16.3 mph 87 % 0.0 in
13:16 7.5 °F 6.0 °F 979.9 in SSW 9.7 mph 14.8 mph 86 % 0.0 in
13:21 7.4 °F 5.0 °F 979.9 in SSW 10.1 mph 14.8 mph 86 % 0.0 in
13:22 7.4 °F 5.0 °F 979.9 in SSW 10.1 mph 14.8 mph 86 % 0.0 in
13:26 7.3 °F 5.0 °F 979.9 in SW 4.7 mph 12.6 mph 86 % 0.0 in
13:31 7.2 °F 5.0 °F 979.9 in SW 7.9 mph 16.9 mph 86 % 0.0 in
13:37 7.1 °F 5.0 °F 979.9 in SW 9.0 mph 16.9 mph 86 % 0.0 in
13:38 7.1 °F 5.0 °F 979.9 in SW 7.9 mph 16.9 mph 86 % 0.0 in
13:43 7.0 °F 5.0 °F 979.9 in WSW 6.4 mph 12.2 mph 87 % 0.0 in
13:44 7.0 °F 5.0 °F 979.9 in SW 9.0 mph 12.2 mph 87 % 0.0 in
13:48 6.9 °F 5.0 °F 979.9 in SW 6.4 mph 12.6 mph 87 % 0.0 in
13:53 6.8 °F 5.0 °F 979.9 in WSW 13.0 mph 13.0 mph 88 % 0.0 in
13:58 6.7 °F 5.0 °F 980.9 in WSW 8.7 mph 13.0 mph 89 % 0.0 in
14:00 6.7 °F 5.0 °F 980.9 in SW 6.9 mph 13.0 mph 89 % 0.0 in
14:05 6.7 °F 5.0 °F 980.9 in Calm   10.5 mph 89 % 0.0 in
14:06 6.7 °F 5.0 °F 980.9 in Calm   10.5 mph 90 % 0.0 in
14:11 6.6 °F 5.0 °F 980.9 in SW 9.3 mph 11.6 mph 90 % 0.0 in
14:14 6.6 °F 5.0 °F 980.9 in Calm   11.6 mph 90 % 0.0 in
14:18 6.6 °F 6.0 °F 980.9 in SSW 1.4 mph 11.6 mph 91 % 0.0 in
14:19 6.6 °F 6.0 °F 980.9 in SSW 6.1 mph 10.5 mph 91 % 0.0 in
14:24 6.6 °F 6.0 °F 980.9 in SSW 6.9 mph 10.5 mph 92 % 0.0 in
14:26 6.7 °F 6.0 °F 980.9 in WSW 9.0 mph 9.7 mph 92 % 0.0 in
14:31 6.7 °F 6.0 °F 980.9 in SSW 6.1 mph 10.5 mph 92 % 0.0 in
14:33 6.7 °F 6.0 °F 980.9 in WSW 9.0 mph 11.9 mph 92 % 0.0 in
14:35 6.7 °F 6.0 °F 980.9 in SW 12.2 mph 12.2 mph 92 % 0.0 in
14:40 6.7 °F 6.0 °F 980.9 in WSW 7.6 mph 12.2 mph 93 % 0.0 in
14:41 6.7 °F 6.0 °F 980.9 in WSW 7.6 mph 12.2 mph 93 % 0.0 in
14:42 6.7 °F 6.0 °F 980.9 in South 6.9 mph 12.2 mph 93 % 0.0 in
14:47 6.6 °F 6.0 °F 980.9 in Calm   10.1 mph 93 % 0.0 in
14:52 6.3 °F 5.0 °F 980.9 in SW 12.2 mph 24.8 mph 92 % 0.3 in
14:57 5.8 °F 5.0 °F 981.9 in West 5.5 mph 24.8 mph 92 % 0.3 in
14:58 5.8 °F 5.0 °F 981.9 in West 4.3 mph 23.3 mph 92 % 0.3 in
15:00 5.7 °F 5.0 °F 981.9 in West 6.1 mph 21.2 mph 92 % 0.3 in
15:05 5.6 °F 5.0 °F 981.9 in West 17.7 mph 17.7 mph 93 % 0.3 in
15:08 5.4 °F 5.0 °F 981.9 in West 9.0 mph 17.7 mph 93 % 0.3 in
15:13 5.4 °F 5.0 °F 981.9 in WSW 1.8 mph 17.7 mph 95 % 0.3 in
15:15 5.4 °F 5.0 °F 981.9 in NW 9.3 mph 18.0 mph 95 % 0.3 in
15:20 5.2 °F 5.0 °F 981.9 in West 16.3 mph 19.1 mph 95 % 0.3 in
15:22 5.2 °F 5.0 °F 981.9 in WNW 6.4 mph 19.1 mph 95 % 0.3 in
15:26 5.2 °F 5.0 °F 981.9 in NNW 8.7 mph 19.1 mph 95 % 0.3 in
15:31 5.3 °F 5.0 °F 981.9 in West 11.9 mph 16.9 mph 96 % 0.8 in
15:33 5.2 °F 5.0 °F 981.9 in NW 17.7 mph 17.7 mph 96 % 0.8 in
15:38 5.2 °F 5.0 °F 981.9 in West 9.7 mph 17.7 mph 96 % 0.8 in
15:43 5.2 °F 5.0 °F 981.9 in West 13.7 mph 16.9 mph 97 % 0.8 in
15:44 5.2 °F 5.0 °F 981.9 in WSW 16.9 mph 16.9 mph 97 % 0.8 in
15:46 5.2 °F 5.0 °F 981.9 in West 12.2 mph 16.9 mph 97 % 0.8 in
15:51 5.2 °F 5.0 °F 981.9 in NW 6.4 mph 17.7 mph 97 % 0.8 in
15:56 5.2 °F 5.0 °F 981.9 in NW 9.3 mph 19.8 mph 97 % 0.3 in
15:57 5.1 °F 5.0 °F 981.9 in West 6.4 mph 19.8 mph 98 % 0.3 in
16:02 5.1 °F 5.0 °F 981.9 in West 15.4 mph 19.8 mph 98 % 0.3 in
16:07 5.1 °F 5.0 °F 981.9 in WNW 10.1 mph 19.8 mph 98 % 0.3 in
16:08 5.0 °F 5.0 °F 981.9 in West 9.7 mph 19.8 mph 98 % 0.3 in
16:13 5.0 °F 5.0 °F 981.9 in WSW 14.3 mph 23.0 mph 98 % 0.3 in
16:17 5.0 °F 5.0 °F 981.9 in WSW 12.6 mph 23.0 mph 98 % 0.3 in
16:22 5.0 °F 5.0 °F 981.9 in WSW 12.6 mph 23.0 mph 98 % 0.3 in
16:23 5.0 °F 5.0 °F 981.9 in WSW 12.6 mph 23.0 mph 98 % 0.3 in
16:29 5.1 °F 5.0 °F 980.9 in WSW 24.8 mph 24.8 mph 98 % 0.3 in
16:32 5.1 °F 5.0 °F 980.9 in NW 8.7 mph 24.8 mph 98 % 0.0 in
16:34 5.1 °F 5.0 °F 980.9 in WNW 4.0 mph 24.8 mph 98 % 0.0 in
16:39 5.1 °F 5.0 °F 980.9 in WNW 11.1 mph 14.0 mph 98 % 0.0 in
16:41 5.1 °F 5.0 °F 981.9 in NNW 17.7 mph 17.7 mph 98 % 0.0 in
16:46 5.1 °F 5.0 °F 981.9 in NNW 16.6 mph 19.8 mph 98 % 0.0 in
16:47 5.1 °F 5.0 °F 981.9 in NNW 12.2 mph 20.6 mph 98 % 0.0 in
16:52 5.1 °F 5.0 °F 981.9 in NNW 20.6 mph 23.0 mph 98 % 0.0 in
16:53 5.1 °F 5.0 °F 981.9 in NNW 21.2 mph 42.8 mph 98 % 0.0 in
16:58 5.1 °F 5.0 °F 983.0 in North 13.0 mph 42.8 mph 98 % 0.0 in
16:59 5.1 °F 5.0 °F 983.0 in NNW 19.5 mph 42.8 mph 98 % 0.0 in
17:04 5.1 °F 5.0 °F 983.0 in NW 38.9 mph 38.9 mph 98 % 0.0 in
17:05 5.1 °F 5.0 °F 983.0 in North 25.6 mph 38.9 mph 98 % 0.0 in
17:10 5.1 °F 5.0 °F 983.0 in NE 10.5 mph 38.9 mph 98 % 0.0 in
17:11 5.1 °F 5.0 °F 984.0 in NNW 39.6 mph 39.6 mph 98 % 0.3 in
17:16 5.1 °F 5.0 °F 984.0 in NNW 20.1 mph 39.6 mph 98 % 0.3 in
17:20 5.1 °F 5.0 °F 984.0 in NNW 13.0 mph 39.6 mph 98 % 0.5 in
17:25 5.1 °F 5.0 °F 984.0 in NNW 14.3 mph 37.0 mph 98 % 0.5 in
17:27 5.1 °F 5.0 °F 985.0 in North 26.2 mph 36.4 mph 98 % 0.8 in
17:32 5.1 °F 5.0 °F 985.0 in North 14.0 mph 53.6 mph 98 % 0.8 in
17:33 5.1 °F 5.0 °F 985.0 in WNW 27.7 mph 53.6 mph 98 % 0.8 in
17:38 5.1 °F 5.0 °F 985.0 in NNW 15.4 mph 53.6 mph 98 % 1.3 in
17:39 4.2 °F 4.0 °F 985.0 in North 32.0 mph 47.9 mph 97 % 1.3 in
17:44 4.1 °F 4.0 °F 985.0 in NW 27.4 mph 40.7 mph 97 % 1.5 in
17:47 4.1 °F 4.0 °F 985.0 in NNW 16.6 mph 40.7 mph 98 % 1.5 in
17:49 4.2 °F 4.0 °F 985.0 in North 30.6 mph 40.7 mph 98 % 1.5 in
17:54 4.2 °F 4.0 °F 985.0 in North 28.0 mph 48.9 mph 97 % 1.8 in
17:55 4.2 °F 4.0 °F 985.0 in NW 17.2 mph 48.9 mph 97 % 1.8 in
18:00 4.3 °F 4.0 °F 986.0 in North 13.0 mph 48.9 mph 97 % 2.3 in
18:01 4.3 °F 4.0 °F 986.0 in North 14.8 mph 48.9 mph 97 % 2.3 in
18:06 4.3 °F 4.0 °F 986.0 in NNE 23.0 mph 42.2 mph 98 % 2.5 in
18:08 4.3 °F 4.0 °F 986.0 in NNW 28.5 mph 42.2 mph 98 % 2.5 in
18:12 4.4 °F 4.0 °F 987.0 in WNW 12.6 mph 54.4 mph 98 % 2.3 in
18:17 4.2 °F 4.0 °F 987.0 in North 32.3 mph 54.4 mph 97 % 2.3 in
18:21 3.8 °F 3.0 °F 987.0 in NNE 28.8 mph 42.2 mph 94 % 2.3 in
18:23 3.7 °F 3.0 °F 987.0 in NNW 32.0 mph 42.2 mph 94 % 2.3 in
18:28 3.7 °F 3.0 °F 986.0 in North 30.6 mph 46.0 mph 94 % 2.3 in
18:29 3.7 °F 3.0 °F 986.0 in North 12.6 mph 46.0 mph 94 % 2.3 in
18:34 3.9 °F 3.0 °F 986.0 in NNW 13.7 mph 46.0 mph 95 % 2.3 in
18:37 4.0 °F 3.0 °F 986.0 in NW 15.8 mph 41.4 mph 95 % 1.8 in
18:42 4.0 °F 3.0 °F 988.0 in WNW 25.6 mph 37.8 mph 95 % 1.5 in
18:47 3.8 °F 3.0 °F 988.0 in North 12.6 mph 28.5 mph 96 % 1.5 in
18:49 3.8 °F 3.0 °F 988.0 in North 12.2 mph 25.6 mph 97 % 1.8 in
18:54 3.8 °F 4.0 °F 988.0 in NNE 19.8 mph 23.8 mph 98 % 1.5 in
18:59 3.7 °F 4.0 °F 989.1 in WNW 6.4 mph 23.8 mph 98 % 1.8 in
19:05 3.6 °F 4.0 °F 989.1 in NNW 17.2 mph 24.8 mph 98 % 1.8 in
19:07 3.6 °F 4.0 °F 989.1 in NNW 17.7 mph 28.0 mph 98 % 1.8 in
19:13 3.6 °F 4.0 °F 989.1 in NW 19.8 mph 39.6 mph 98 % 1.5 in
19:16 3.6 °F 4.0 °F 989.1 in North 9.0 mph 39.6 mph 98 % 1.5 in
19:17 3.6 °F 4.0 °F 989.1 in North 20.6 mph 39.6 mph 98 % 1.5 in
19:23 3.6 °F 4.0 °F 989.1 in North 10.8 mph 29.9 mph 98 % 1.3 in
19:26 3.7 °F 4.0 °F 989.1 in North 14.0 mph 29.9 mph 98 % 1.5 in
19:27 3.7 °F 4.0 °F 989.1 in North 12.2 mph 29.9 mph 98 % 1.5 in
19:33 3.8 °F 4.0 °F 989.1 in NW 9.3 mph 24.8 mph 98 % 1.8 in
19:34 3.9 °F 4.0 °F 989.1 in NNW 8.7 mph 24.8 mph 98 % 1.8 in
19:39 4.0 °F 4.0 °F 989.1 in North 12.6 mph 19.8 mph 98 % 2.3 in
19:41 4.0 °F 4.0 °F 989.1 in North 13.0 mph 19.8 mph 98 % 2.5 in
19:46 4.2 °F 4.0 °F 989.1 in NNE 6.9 mph 19.1 mph 98 % 2.5 in
19:47 4.2 °F 4.0 °F 989.1 in West 9.0 mph 19.1 mph 98 % 2.5 in
19:52 4.4 °F 4.0 °F 989.1 in North 24.5 mph 30.9 mph 98 % 2.3 in
19:54 4.4 °F 4.0 °F 989.1 in NNW 16.9 mph 34.6 mph 98 % 2.3 in
19:59 4.5 °F 5.0 °F 990.1 in WNW 16.9 mph 34.6 mph 98 % 1.5 in
20:00 4.5 °F 5.0 °F 990.1 in NNW 15.8 mph 34.6 mph 98 % 1.3 in
20:05 4.4 °F 4.0 °F 990.1 in West 17.7 mph 31.4 mph 98 % 1.5 in
20:08 4.4 °F 4.0 °F 990.1 in NW 20.1 mph 31.4 mph 97 % 1.5 in
20:13 4.4 °F 4.0 °F 992.1 in NW 6.1 mph 24.5 mph 96 % 1.5 in
20:16 4.4 °F 4.0 °F 992.1 in NNW 16.6 mph 24.5 mph 96 % 1.5 in
20:23 4.4 °F 4.0 °F 992.1 in NNW 9.7 mph 24.5 mph 95 % 1.3 in
20:26 4.4 °F 4.0 °F 991.1 in NW 19.8 mph 30.9 mph 95 % 1.3 in
20:30 4.4 °F 4.0 °F 991.1 in North 23.3 mph 30.9 mph 95 % 1.3 in
20:35 4.4 °F 3.0 °F 991.1 in NW 14.0 mph 30.9 mph 93 % 0.5 in
20:38 4.4 °F 3.0 °F 991.1 in WNW 13.7 mph 30.9 mph 93 % 0.5 in
20:43 4.4 °F 3.0 °F 991.1 in North 13.7 mph 30.9 mph 92 % 0.3 in
20:46 4.4 °F 3.0 °F 991.1 in West 11.6 mph 30.9 mph 92 % 0.3 in
20:50 4.4 °F 3.0 °F 991.1 in NNW 12.6 mph 24.8 mph 91 % 0.3 in
20:55 4.4 °F 3.0 °F 991.1 in NNE 14.0 mph 25.9 mph 92 % 0.3 in
20:57 4.4 °F 3.0 °F 992.1 in WNW 13.0 mph 25.9 mph 91 % 0.3 in
20:59 4.4 °F 3.0 °F 992.1 in West 17.2 mph 25.9 mph 91 % 0.3 in
21:02 4.4 °F 3.0 °F 992.1 in North 11.9 mph 25.6 mph 91 % 0.3 in
21:06 4.4 °F 3.0 °F 992.1 in NNE 17.7 mph 21.9 mph 91 % 0.0 in
21:08 4.4 °F 3.0 °F 992.1 in NW 23.0 mph 28.5 mph 91 % 0.0 in
21:13 4.5 °F 3.0 °F 993.1 in West 10.5 mph 28.5 mph 90 % 0.0 in
21:14 4.5 °F 3.0 °F 993.1 in NNW 7.6 mph 28.5 mph 90 % 0.0 in
21:19 4.5 °F 3.0 °F 993.1 in NNW 15.4 mph 27.7 mph 90 % 0.0 in
21:23 4.5 °F 3.0 °F 993.1 in North 12.2 mph 27.7 mph 90 % 0.0 in
21:28 4.5 °F 3.0 °F 993.1 in WNW 25.9 mph 27.7 mph 89 % 0.0 in
21:33 4.4 °F 3.0 °F 993.1 in North 12.6 mph 25.9 mph 88 % 0.0 in
21:37 4.4 °F 3.0 °F 993.1 in NNW 16.6 mph 25.9 mph 88 % 0.0 in
21:42 4.4 °F 3.0 °F 993.1 in WNW 16.9 mph 29.9 mph 88 % 0.0 in
21:43 4.3 °F 3.0 °F 993.1 in North 10.1 mph 29.9 mph 88 % 0.0 in
21:48 4.3 °F 3.0 °F 993.1 in WNW 12.6 mph 29.9 mph 88 % 0.0 in
21:53 4.3 °F 3.0 °F 993.1 in North 14.0 mph 24.8 mph 88 % 0.0 in
21:56 4.2 °F 3.0 °F 993.1 in NE 9.3 mph 17.7 mph 88 % 0.0 in
21:57 4.2 °F 3.0 °F 993.1 in WNW 9.0 mph 17.7 mph 88 % 0.0 in
22:02 4.3 °F 3.0 °F 993.1 in NNW 8.7 mph 20.9 mph 88 % 0.0 in
22:03 4.3 °F 3.0 °F 993.1 in NE 13.7 mph 20.9 mph 88 % 0.0 in
22:05 4.3 °F 3.0 °F 993.1 in NW 16.3 mph 20.9 mph 88 % 0.0 in
22:10 4.3 °F 3.0 °F 993.1 in North 12.2 mph 20.9 mph 88 % 0.0 in
22:12 4.3 °F 3.0 °F 993.1 in North 6.1 mph 17.2 mph 88 % 0.0 in
22:14 4.3 °F 3.0 °F 993.1 in NW 6.4 mph 17.2 mph 88 % 0.0 in
22:19 4.3 °F 3.0 °F 993.1 in NNW 4.3 mph 23.8 mph 87 % 0.0 in
22:23 4.3 °F 3.0 °F 993.1 in NNE 8.7 mph 23.8 mph 87 % 0.0 in
22:26 4.4 °F 3.0 °F 993.1 in SSW 20.9 mph 20.9 mph 87 % 0.0 in
22:31 4.4 °F 3.0 °F 993.1 in NNE 9.3 mph 20.9 mph 87 % 0.0 in
22:35 4.4 °F 3.0 °F 993.1 in WNW 10.1 mph 20.9 mph 87 % 0.0 in
22:37 4.4 °F 3.0 °F 993.1 in WNW 11.6 mph 20.6 mph 87 % 0.0 in
22:41 4.4 °F 3.0 °F 994.1 in NW 5.0 mph 20.6 mph 87 % 0.0 in
22:43 4.4 °F 3.0 °F 994.1 in NNW 9.0 mph 20.6 mph 87 % 0.0 in
22:49 4.4 °F 2.0 °F 994.1 in North 9.3 mph 16.6 mph 86 % 0.0 in
22:51 4.4 °F 2.0 °F 994.1 in WNW 10.5 mph 17.7 mph 86 % 0.0 in
22:55 4.4 °F 2.0 °F 994.1 in North 12.6 mph 23.3 mph 86 % 0.0 in
22:57 4.4 °F 2.0 °F 994.1 in NNW 7.9 mph 23.3 mph 86 % 0.0 in
23:02 4.4 °F 2.0 °F 994.1 in NW 11.6 mph 23.3 mph 85 % 0.0 in
23:04 4.3 °F 2.0 °F 994.1 in WNW 6.1 mph 19.5 mph 85 % 0.0 in
23:06 4.3 °F 2.0 °F 994.1 in West 4.0 mph 19.5 mph 85 % 0.0 in
23:10 4.3 °F 2.0 °F 994.1 in NNE 12.2 mph 16.9 mph 85 % 0.0 in
23:14 4.3 °F 2.0 °F 995.1 in WNW 6.4 mph 16.9 mph 85 % 0.0 in
23:15 4.3 °F 2.0 °F 995.1 in WNW 10.1 mph 14.0 mph 85 % 0.0 in
23:21 4.2 °F 2.0 °F 995.1 in NNW 15.4 mph 24.8 mph 85 % 0.0 in
23:22 4.2 °F 2.0 °F 995.1 in WNW 12.6 mph 24.8 mph 85 % 0.0 in
23:25 4.2 °F 2.0 °F 995.1 in West 9.7 mph 24.8 mph 84 % 0.0 in
23:30 4.1 °F 2.0 °F 995.1 in NNE 15.1 mph 17.7 mph 84 % 0.0 in
23:35 4.1 °F 2.0 °F 995.1 in NNW 9.3 mph 18.3 mph 84 % 0.0 in
23:36 4.1 °F 2.0 °F 995.1 in NNW 6.4 mph 18.3 mph 84 % 0.0 in
23:41 4.0 °F 2.0 °F 995.1 in West 5.0 mph 18.3 mph 84 % 0.0 in
23:46 4.0 °F 2.0 °F 995.1 in NNW 1.8 mph 16.9 mph 85 % 0.0 in
23:48 4.0 °F 2.0 °F 995.1 in West 5.5 mph 16.9 mph 85 % 0.0 in
23:53 4.0 °F 2.0 °F 995.1 in WNW 4.7 mph 16.9 mph 85 % 0.0 in
23:58 4.0 °F 2.0 °F 994.1 in WNW 12.2 mph 13.0 mph 85 % 0.0 in
Le Gheer Warneton
Courtoisie de Weather Underground - 2.5 mb

Mise a jour : 21/02/2018 11:49:12
Généré par Cumulus 1.9.4 (1099)